sensor_id;sensor_type;location;lat;lon;timestamp;P1;durP1;ratioP1;P2;durP2;ratioP2
35795;SDS011;21916;52.428;13.302;2023-10-31T00:01:51;10.15;;;3.72;;
35795;SDS011;21916;52.428;13.302;2023-10-31T00:04:17;12.00;;;4.38;;
35795;SDS011;21916;52.428;13.302;2023-10-31T00:06:42;5.90;;;3.38;;
35795;SDS011;21916;52.428;13.302;2023-10-31T00:09:10;7.97;;;3.75;;
35795;SDS011;21916;52.428;13.302;2023-10-31T00:11:36;5.43;;;3.55;;
35795;SDS011;21916;52.428;13.302;2023-10-31T00:14:02;9.25;;;4.18;;
35795;SDS011;21916;52.428;13.302;2023-10-31T00:16:28;8.95;;;3.95;;
35795;SDS011;21916;52.428;13.302;2023-10-31T00:18:54;9.63;;;3.92;;
35795;SDS011;21916;52.428;13.302;2023-10-31T00:21:20;6.75;;;4.10;;
35795;SDS011;21916;52.428;13.302;2023-10-31T00:23:46;6.95;;;4.10;;
35795;SDS011;21916;52.428;13.302;2023-10-31T00:26:13;9.50;;;4.15;;
35795;SDS011;21916;52.428;13.302;2023-10-31T00:28:46;8.88;;;3.20;;
35795;SDS011;21916;52.428;13.302;2023-10-31T00:31:12;8.75;;;4.07;;
35795;SDS011;21916;52.428;13.302;2023-10-31T00:33:39;6.60;;;3.17;;
35795;SDS011;21916;52.428;13.302;2023-10-31T00:36:05;6.15;;;3.60;;
35795;SDS011;21916;52.428;13.302;2023-10-31T00:38:31;8.68;;;3.47;;
35795;SDS011;21916;52.428;13.302;2023-10-31T00:40:57;7.60;;;3.97;;
35795;SDS011;21916;52.428;13.302;2023-10-31T00:43:23;7.15;;;3.55;;
35795;SDS011;21916;52.428;13.302;2023-10-31T00:45:49;7.18;;;3.45;;
35795;SDS011;21916;52.428;13.302;2023-10-31T00:48:15;7.22;;;3.58;;
35795;SDS011;21916;52.428;13.302;2023-10-31T00:50:40;10.27;;;3.85;;
35795;SDS011;21916;52.428;13.302;2023-10-31T00:53:06;6.03;;;3.83;;
35795;SDS011;21916;52.428;13.302;2023-10-31T00:55:33;6.63;;;3.78;;
35795;SDS011;21916;52.428;13.302;2023-10-31T00:57:59;7.60;;;3.38;;
35795;SDS011;21916;52.428;13.302;2023-10-31T01:00:25;5.97;;;3.70;;
35795;SDS011;21916;52.428;13.302;2023-10-31T01:02:50;8.05;;;3.63;;
35795;SDS011;21916;52.428;13.302;2023-10-31T01:05:16;7.05;;;3.75;;
35795;SDS011;21916;52.428;13.302;2023-10-31T01:07:42;7.82;;;3.88;;
35795;SDS011;21916;52.428;13.302;2023-10-31T01:10:08;10.32;;;3.90;;
35795;SDS011;21916;52.428;13.302;2023-10-31T01:12:33;5.55;;;3.47;;
35795;SDS011;21916;52.428;13.302;2023-10-31T01:15:00;6.47;;;3.58;;
35795;SDS011;21916;52.428;13.302;2023-10-31T01:17:26;6.20;;;3.63;;
35795;SDS011;21916;52.428;13.302;2023-10-31T01:19:52;5.97;;;3.97;;
35795;SDS011;21916;52.428;13.302;2023-10-31T01:22:17;6.53;;;3.60;;
35795;SDS011;21916;52.428;13.302;2023-10-31T01:24:43;8.88;;;3.60;;
35795;SDS011;21916;52.428;13.302;2023-10-31T01:27:09;7.72;;;4.40;;
35795;SDS011;21916;52.428;13.302;2023-10-31T01:29:35;8.38;;;3.90;;
35795;SDS011;21916;52.428;13.302;2023-10-31T01:32:00;7.32;;;4.05;;
35795;SDS011;21916;52.428;13.302;2023-10-31T01:34:27;6.65;;;4.13;;
35795;SDS011;21916;52.428;13.302;2023-10-31T01:36:53;6.03;;;3.33;;
35795;SDS011;21916;52.428;13.302;2023-10-31T01:39:18;8.68;;;3.75;;
35795;SDS011;21916;52.428;13.302;2023-10-31T01:41:45;7.18;;;3.85;;
35795;SDS011;21916;52.428;13.302;2023-10-31T01:44:11;6.38;;;3.60;;
35795;SDS011;21916;52.428;13.302;2023-10-31T01:46:37;8.20;;;4.72;;
35795;SDS011;21916;52.428;13.302;2023-10-31T01:49:02;9.43;;;4.03;;
35795;SDS011;21916;52.428;13.302;2023-10-31T01:51:28;6.43;;;2.97;;
35795;SDS011;21916;52.428;13.302;2023-10-31T01:53:55;9.95;;;4.60;;
35795;SDS011;21916;52.428;13.302;2023-10-31T01:56:22;8.90;;;3.63;;
35795;SDS011;21916;52.428;13.302;2023-10-31T01:58:48;9.50;;;4.18;;
35795;SDS011;21916;52.428;13.302;2023-10-31T02:01:15;8.82;;;2.90;;
35795;SDS011;21916;52.428;13.302;2023-10-31T02:03:41;8.40;;;4.03;;
35795;SDS011;21916;52.428;13.302;2023-10-31T02:06:07;5.68;;;4.03;;
35795;SDS011;21916;52.428;13.302;2023-10-31T02:08:33;6.13;;;3.60;;
35795;SDS011;21916;52.428;13.302;2023-10-31T02:10:59;6.68;;;3.70;;
35795;SDS011;21916;52.428;13.302;2023-10-31T02:13:25;7.15;;;4.07;;
35795;SDS011;21916;52.428;13.302;2023-10-31T02:15:51;7.75;;;3.92;;
35795;SDS011;21916;52.428;13.302;2023-10-31T02:18:17;15.70;;;4.43;;
35795;SDS011;21916;52.428;13.302;2023-10-31T02:20:43;8.43;;;4.75;;
35795;SDS011;21916;52.428;13.302;2023-10-31T02:23:08;5.82;;;3.80;;
35795;SDS011;21916;52.428;13.302;2023-10-31T02:25:34;8.82;;;3.80;;
35795;SDS011;21916;52.428;13.302;2023-10-31T02:28:00;9.25;;;4.00;;
35795;SDS011;21916;52.428;13.302;2023-10-31T02:30:26;8.18;;;3.90;;
35795;SDS011;21916;52.428;13.302;2023-10-31T02:32:52;8.05;;;3.58;;
35795;SDS011;21916;52.428;13.302;2023-10-31T02:35:19;7.60;;;4.15;;
35795;SDS011;21916;52.428;13.302;2023-10-31T02:37:45;8.18;;;4.00;;
35795;SDS011;21916;52.428;13.302;2023-10-31T02:40:12;10.20;;;5.43;;
35795;SDS011;21916;52.428;13.302;2023-10-31T02:42:38;8.77;;;4.60;;
35795;SDS011;21916;52.428;13.302;2023-10-31T02:45:05;7.22;;;4.22;;
35795;SDS011;21916;52.428;13.302;2023-10-31T02:47:31;10.82;;;4.95;;
35795;SDS011;21916;52.428;13.302;2023-10-31T02:49:57;13.35;;;5.28;;
35795;SDS011;21916;52.428;13.302;2023-10-31T02:52:23;7.03;;;4.60;;
35795;SDS011;21916;52.428;13.302;2023-10-31T02:54:48;8.88;;;5.28;;
35795;SDS011;21916;52.428;13.302;2023-10-31T02:57:15;8.32;;;4.55;;
35795;SDS011;21916;52.428;13.302;2023-10-31T02:59:41;9.23;;;4.32;;
35795;SDS011;21916;52.428;13.302;2023-10-31T03:02:07;6.15;;;4.13;;
35795;SDS011;21916;52.428;13.302;2023-10-31T03:04:33;8.07;;;4.93;;
35795;SDS011;21916;52.428;13.302;2023-10-31T03:06:59;11.25;;;5.05;;
35795;SDS011;21916;52.428;13.302;2023-10-31T03:09:24;7.72;;;4.35;;
35795;SDS011;21916;52.428;13.302;2023-10-31T03:11:50;8.82;;;5.07;;
35795;SDS011;21916;52.428;13.302;2023-10-31T03:14:17;8.43;;;4.72;;
35795;SDS011;21916;52.428;13.302;2023-10-31T03:16:42;8.45;;;4.57;;
35795;SDS011;21916;52.428;13.302;2023-10-31T03:19:08;9.85;;;4.93;;
35795;SDS011;21916;52.428;13.302;2023-10-31T03:21:34;6.68;;;4.53;;
35795;SDS011;21916;52.428;13.302;2023-10-31T03:23:59;7.45;;;4.75;;
35795;SDS011;21916;52.428;13.302;2023-10-31T03:26:25;6.00;;;4.18;;
35795;SDS011;21916;52.428;13.302;2023-10-31T03:28:51;8.90;;;5.07;;
35795;SDS011;21916;52.428;13.302;2023-10-31T03:31:22;11.27;;;5.68;;
35795;SDS011;21916;52.428;13.302;2023-10-31T03:33:49;9.25;;;6.05;;
35795;SDS011;21916;52.428;13.302;2023-10-31T03:36:15;10.30;;;5.75;;
35795;SDS011;21916;52.428;13.302;2023-10-31T03:38:40;9.90;;;6.88;;
35795;SDS011;21916;52.428;13.302;2023-10-31T03:41:07;12.50;;;7.57;;
35795;SDS011;21916;52.428;13.302;2023-10-31T03:43:33;10.80;;;7.93;;
35795;SDS011;21916;52.428;13.302;2023-10-31T03:45:59;12.40;;;7.38;;
35795;SDS011;21916;52.428;13.302;2023-10-31T03:48:25;11.38;;;6.95;;
35795;SDS011;21916;52.428;13.302;2023-10-31T03:50:52;10.85;;;6.00;;
35795;SDS011;21916;52.428;13.302;2023-10-31T03:53:18;11.38;;;6.40;;
35795;SDS011;21916;52.428;13.302;2023-10-31T03:55:44;8.63;;;5.72;;
35795;SDS011;21916;52.428;13.302;2023-10-31T03:58:10;8.15;;;5.63;;
35795;SDS011;21916;52.428;13.302;2023-10-31T04:00:36;11.02;;;5.80;;
35795;SDS011;21916;52.428;13.302;2023-10-31T04:03:11;8.10;;;4.95;;
35795;SDS011;21916;52.428;13.302;2023-10-31T04:05:37;10.70;;;5.60;;
35795;SDS011;21916;52.428;13.302;2023-10-31T04:08:03;10.32;;;5.60;;
35795;SDS011;21916;52.428;13.302;2023-10-31T04:10:29;8.50;;;4.75;;
35795;SDS011;21916;52.428;13.302;2023-10-31T04:12:54;10.38;;;5.60;;
35795;SDS011;21916;52.428;13.302;2023-10-31T04:15:20;8.40;;;5.40;;
35795;SDS011;21916;52.428;13.302;2023-10-31T04:17:46;8.27;;;5.28;;
35795;SDS011;21916;52.428;13.302;2023-10-31T04:20:11;9.35;;;6.00;;
35795;SDS011;21916;52.428;13.302;2023-10-31T04:22:37;9.95;;;5.53;;
35795;SDS011;21916;52.428;13.302;2023-10-31T04:25:03;8.82;;;5.68;;
35795;SDS011;21916;52.428;13.302;2023-10-31T04:27:29;7.80;;;5.30;;
35795;SDS011;21916;52.428;13.302;2023-10-31T04:29:55;10.93;;;5.90;;
35795;SDS011;21916;52.428;13.302;2023-10-31T04:32:20;9.98;;;5.50;;
35795;SDS011;21916;52.428;13.302;2023-10-31T04:34:46;10.82;;;5.82;;
35795;SDS011;21916;52.428;13.302;2023-10-31T04:37:12;10.45;;;5.68;;
35795;SDS011;21916;52.428;13.302;2023-10-31T04:39:38;7.15;;;4.72;;
35795;SDS011;21916;52.428;13.302;2023-10-31T04:42:03;11.50;;;5.95;;
35795;SDS011;21916;52.428;13.302;2023-10-31T04:44:29;11.13;;;5.80;;
35795;SDS011;21916;52.428;13.302;2023-10-31T04:46:56;8.35;;;5.63;;
35795;SDS011;21916;52.428;13.302;2023-10-31T04:49:21;8.30;;;5.68;;
35795;SDS011;21916;52.428;13.302;2023-10-31T04:51:47;10.07;;;5.93;;
35795;SDS011;21916;52.428;13.302;2023-10-31T04:54:13;9.25;;;5.50;;
35795;SDS011;21916;52.428;13.302;2023-10-31T04:56:39;11.10;;;6.30;;
35795;SDS011;21916;52.428;13.302;2023-10-31T04:59:05;8.18;;;5.43;;
35795;SDS011;21916;52.428;13.302;2023-10-31T05:01:31;8.85;;;6.13;;
35795;SDS011;21916;52.428;13.302;2023-10-31T05:03:56;8.13;;;5.75;;
35795;SDS011;21916;52.428;13.302;2023-10-31T05:06:22;12.38;;;6.57;;
35795;SDS011;21916;52.428;13.302;2023-10-31T05:08:48;11.45;;;5.68;;
35795;SDS011;21916;52.428;13.302;2023-10-31T05:11:17;14.23;;;6.38;;
35795;SDS011;21916;52.428;13.302;2023-10-31T05:13:44;9.18;;;5.65;;
35795;SDS011;21916;52.428;13.302;2023-10-31T05:16:10;10.38;;;6.47;;
35795;SDS011;21916;52.428;13.302;2023-10-31T05:18:37;10.20;;;7.05;;
35795;SDS011;21916;52.428;13.302;2023-10-31T05:21:03;10.32;;;6.30;;
35795;SDS011;21916;52.428;13.302;2023-10-31T05:23:31;11.13;;;6.28;;
35795;SDS011;21916;52.428;13.302;2023-10-31T05:25:56;8.82;;;6.05;;
35795;SDS011;21916;52.428;13.302;2023-10-31T05:28:22;8.10;;;5.82;;
35795;SDS011;21916;52.428;13.302;2023-10-31T05:30:48;10.50;;;6.07;;
35795;SDS011;21916;52.428;13.302;2023-10-31T05:33:15;7.57;;;5.80;;
35795;SDS011;21916;52.428;13.302;2023-10-31T05:35:41;8.80;;;6.00;;
35795;SDS011;21916;52.428;13.302;2023-10-31T05:38:07;10.23;;;5.97;;
35795;SDS011;21916;52.428;13.302;2023-10-31T05:40:32;7.03;;;4.75;;
35795;SDS011;21916;52.428;13.302;2023-10-31T05:43:00;7.93;;;5.28;;
35795;SDS011;21916;52.428;13.302;2023-10-31T05:45:27;10.10;;;5.05;;
35795;SDS011;21916;52.428;13.302;2023-10-31T05:47:53;9.68;;;5.75;;
35795;SDS011;21916;52.428;13.302;2023-10-31T05:50:22;10.30;;;6.43;;
35795;SDS011;21916;52.428;13.302;2023-10-31T05:52:47;10.63;;;6.35;;
35795;SDS011;21916;52.428;13.302;2023-10-31T05:55:13;9.38;;;6.13;;
35795;SDS011;21916;52.428;13.302;2023-10-31T05:57:39;7.25;;;5.57;;
35795;SDS011;21916;52.428;13.302;2023-10-31T06:00:06;9.18;;;6.07;;
35795;SDS011;21916;52.428;13.302;2023-10-31T06:02:37;8.05;;;5.57;;
35795;SDS011;21916;52.428;13.302;2023-10-31T06:05:03;7.25;;;5.30;;
35795;SDS011;21916;52.428;13.302;2023-10-31T06:07:29;8.90;;;5.68;;
35795;SDS011;21916;52.428;13.302;2023-10-31T06:09:55;9.75;;;5.90;;
35795;SDS011;21916;52.428;13.302;2023-10-31T06:12:21;6.15;;;4.95;;
35795;SDS011;21916;52.428;13.302;2023-10-31T06:14:46;7.85;;;4.47;;
35795;SDS011;21916;52.428;13.302;2023-10-31T06:17:12;9.68;;;5.60;;
35795;SDS011;21916;52.428;13.302;2023-10-31T06:19:38;6.78;;;5.72;;
35795;SDS011;21916;52.428;13.302;2023-10-31T06:22:09;6.90;;;4.32;;
35795;SDS011;21916;52.428;13.302;2023-10-31T06:24:35;10.07;;;5.10;;
35795;SDS011;21916;52.428;13.302;2023-10-31T06:27:01;6.22;;;4.38;;
35795;SDS011;21916;52.428;13.302;2023-10-31T06:29:26;6.78;;;4.28;;
35795;SDS011;21916;52.428;13.302;2023-10-31T06:31:52;5.88;;;4.13;;
35795;SDS011;21916;52.428;13.302;2023-10-31T06:34:18;7.05;;;4.63;;
35795;SDS011;21916;52.428;13.302;2023-10-31T06:36:44;4.45;;;3.60;;
35795;SDS011;21916;52.428;13.302;2023-10-31T06:39:09;7.40;;;4.10;;
35795;SDS011;21916;52.428;13.302;2023-10-31T06:41:35;6.65;;;4.40;;
35795;SDS011;21916;52.428;13.302;2023-10-31T06:44:01;6.93;;;3.85;;
35795;SDS011;21916;52.428;13.302;2023-10-31T06:46:26;6.45;;;3.63;;
35795;SDS011;21916;52.428;13.302;2023-10-31T06:48:52;4.88;;;3.60;;
35795;SDS011;21916;52.428;13.302;2023-10-31T06:51:18;6.00;;;4.13;;
35795;SDS011;21916;52.428;13.302;2023-10-31T06:53:43;5.00;;;3.13;;
35795;SDS011;21916;52.428;13.302;2023-10-31T06:56:10;4.97;;;3.03;;
35795;SDS011;21916;52.428;13.302;2023-10-31T06:58:35;4.35;;;3.13;;
35795;SDS011;21916;52.428;13.302;2023-10-31T07:01:01;4.32;;;3.03;;
35795;SDS011;21916;52.428;13.302;2023-10-31T07:03:28;6.82;;;3.05;;
35795;SDS011;21916;52.428;13.302;2023-10-31T07:05:55;6.32;;;3.47;;
35795;SDS011;21916;52.428;13.302;2023-10-31T07:08:22;3.40;;;2.63;;
35795;SDS011;21916;52.428;13.302;2023-10-31T07:10:48;4.40;;;3.10;;
35795;SDS011;21916;52.428;13.302;2023-10-31T07:13:13;5.95;;;2.95;;
35795;SDS011;21916;52.428;13.302;2023-10-31T07:15:39;3.70;;;2.33;;
35795;SDS011;21916;52.428;13.302;2023-10-31T07:18:05;4.78;;;2.65;;
35795;SDS011;21916;52.428;13.302;2023-10-31T07:20:34;3.95;;;2.67;;
35795;SDS011;21916;52.428;13.302;2023-10-31T07:23:00;2.25;;;1.70;;
35795;SDS011;21916;52.428;13.302;2023-10-31T07:25:26;3.63;;;1.77;;
35795;SDS011;21916;52.428;13.302;2023-10-31T07:27:51;2.78;;;1.23;;
35795;SDS011;21916;52.428;13.302;2023-10-31T07:30:17;2.33;;;1.42;;
35795;SDS011;21916;52.428;13.302;2023-10-31T07:32:43;1.55;;;1.00;;
35795;SDS011;21916;52.428;13.302;2023-10-31T07:35:08;1.67;;;1.10;;
35795;SDS011;21916;52.428;13.302;2023-10-31T07:37:34;1.83;;;1.10;;
35795;SDS011;21916;52.428;13.302;2023-10-31T07:40:00;1.70;;;1.17;;
35795;SDS011;21916;52.428;13.302;2023-10-31T07:42:25;1.88;;;0.90;;
35795;SDS011;21916;52.428;13.302;2023-10-31T07:44:51;1.58;;;1.35;;
35795;SDS011;21916;52.428;13.302;2023-10-31T07:47:17;1.40;;;1.10;;
35795;SDS011;21916;52.428;13.302;2023-10-31T07:49:44;1.90;;;1.10;;
35795;SDS011;21916;52.428;13.302;2023-10-31T07:52:10;0.90;;;0.73;;
35795;SDS011;21916;52.428;13.302;2023-10-31T07:54:38;1.50;;;1.20;;
35795;SDS011;21916;52.428;13.302;2023-10-31T07:57:05;1.52;;;1.00;;
35795;SDS011;21916;52.428;13.302;2023-10-31T07:59:34;0.90;;;0.80;;
35795;SDS011;21916;52.428;13.302;2023-10-31T08:02:00;1.73;;;1.00;;
35795;SDS011;21916;52.428;13.302;2023-10-31T08:04:26;2.28;;;0.93;;
35795;SDS011;21916;52.428;13.302;2023-10-31T08:06:53;1.40;;;1.02;;
35795;SDS011;21916;52.428;13.302;2023-10-31T08:09:19;0.50;;;0.40;;
35795;SDS011;21916;52.428;13.302;2023-10-31T08:11:45;0.93;;;0.70;;
35795;SDS011;21916;52.428;13.302;2023-10-31T08:14:10;0.77;;;0.70;;
35795;SDS011;21916;52.428;13.302;2023-10-31T08:16:36;2.22;;;0.60;;
35795;SDS011;21916;52.428;13.302;2023-10-31T08:19:02;2.97;;;0.63;;
35795;SDS011;21916;52.428;13.302;2023-10-31T08:21:28;2.65;;;0.75;;
35795;SDS011;21916;52.428;13.302;2023-10-31T08:23:59;0.70;;;0.57;;
35795;SDS011;21916;52.428;13.302;2023-10-31T08:26:25;0.88;;;0.70;;
35795;SDS011;21916;52.428;13.302;2023-10-31T08:28:51;0.40;;;0.40;;
35795;SDS011;21916;52.428;13.302;2023-10-31T08:31:16;0.70;;;0.60;;
35795;SDS011;21916;52.428;13.302;2023-10-31T08:33:42;0.65;;;0.50;;
35795;SDS011;21916;52.428;13.302;2023-10-31T08:36:08;0.50;;;0.50;;
35795;SDS011;21916;52.428;13.302;2023-10-31T08:38:34;0.40;;;0.40;;
35795;SDS011;21916;52.428;13.302;2023-10-31T08:41:00;0.52;;;0.50;;
35795;SDS011;21916;52.428;13.302;2023-10-31T08:43:26;0.30;;;0.30;;
35795;SDS011;21916;52.428;13.302;2023-10-31T08:45:51;0.65;;;0.50;;
35795;SDS011;21916;52.428;13.302;2023-10-31T08:48:17;0.40;;;0.40;;
35795;SDS011;21916;52.428;13.302;2023-10-31T08:50:43;1.27;;;0.77;;
35795;SDS011;21916;52.428;13.302;2023-10-31T08:53:12;2.47;;;0.30;;
35795;SDS011;21916;52.428;13.302;2023-10-31T08:55:38;0.45;;;0.20;;
35795;SDS011;21916;52.428;13.302;2023-10-31T08:58:03;0.35;;;0.30;;
35795;SDS011;21916;52.428;13.302;2023-10-31T09:00:29;0.20;;;0.20;;
35795;SDS011;21916;52.428;13.302;2023-10-31T09:02:56;0.50;;;0.40;;
35795;SDS011;21916;52.428;13.302;2023-10-31T09:05:22;0.20;;;0.20;;
35795;SDS011;21916;52.428;13.302;2023-10-31T09:07:48;0.40;;;0.35;;
35795;SDS011;21916;52.428;13.302;2023-10-31T09:10:13;0.20;;;0.20;;
35795;SDS011;21916;52.428;13.302;2023-10-31T09:12:40;0.57;;;0.40;;
35795;SDS011;21916;52.428;13.302;2023-10-31T09:15:06;0.82;;;0.40;;
35795;SDS011;21916;52.428;13.302;2023-10-31T09:17:32;0.30;;;0.30;;
35795;SDS011;21916;52.428;13.302;2023-10-31T09:19:58;2.90;;;0.50;;
35795;SDS011;21916;52.428;13.302;2023-10-31T09:22:27;0.75;;;0.60;;
35795;SDS011;21916;52.428;13.302;2023-10-31T09:24:53;0.93;;;0.55;;
35795;SDS011;21916;52.428;13.302;2023-10-31T09:27:19;1.23;;;0.50;;
35795;SDS011;21916;52.428;13.302;2023-10-31T09:29:45;1.65;;;0.50;;
35795;SDS011;21916;52.428;13.302;2023-10-31T09:32:11;1.50;;;0.70;;
35795;SDS011;21916;52.428;13.302;2023-10-31T09:34:36;0.85;;;0.60;;
35795;SDS011;21916;52.428;13.302;2023-10-31T09:37:03;0.73;;;0.60;;
35795;SDS011;21916;52.428;13.302;2023-10-31T09:39:28;0.52;;;0.52;;
35795;SDS011;21916;52.428;13.302;2023-10-31T09:41:54;2.92;;;0.63;;
35795;SDS011;21916;52.428;13.302;2023-10-31T09:44:20;1.60;;;0.65;;
35795;SDS011;21916;52.428;13.302;2023-10-31T09:46:46;0.57;;;0.40;;
35795;SDS011;21916;52.428;13.302;2023-10-31T09:49:12;1.38;;;0.60;;
35795;SDS011;21916;52.428;13.302;2023-10-31T09:51:38;0.70;;;0.45;;
35795;SDS011;21916;52.428;13.302;2023-10-31T09:54:07;2.13;;;0.65;;
35795;SDS011;21916;52.428;13.302;2023-10-31T09:56:34;0.82;;;0.55;;
35795;SDS011;21916;52.428;13.302;2023-10-31T09:59:00;0.77;;;0.50;;
35795;SDS011;21916;52.428;13.302;2023-10-31T10:01:28;0.55;;;0.50;;
35795;SDS011;21916;52.428;13.302;2023-10-31T10:03:54;0.50;;;0.50;;
35795;SDS011;21916;52.428;13.302;2023-10-31T10:06:21;0.60;;;0.60;;
35795;SDS011;21916;52.428;13.302;2023-10-31T10:08:49;0.90;;;0.68;;
35795;SDS011;21916;52.428;13.302;2023-10-31T10:11:16;1.15;;;0.90;;
35795;SDS011;21916;52.428;13.302;2023-10-31T10:13:41;0.82;;;0.60;;
35795;SDS011;21916;52.428;13.302;2023-10-31T10:16:07;0.73;;;0.60;;
35795;SDS011;21916;52.428;13.302;2023-10-31T10:18:35;1.38;;;0.80;;
35795;SDS011;21916;52.428;13.302;2023-10-31T10:21:04;3.78;;;0.77;;
35795;SDS011;21916;52.428;13.302;2023-10-31T10:23:31;1.23;;;0.70;;
35795;SDS011;21916;52.428;13.302;2023-10-31T10:25:57;1.83;;;0.90;;
35795;SDS011;21916;52.428;13.302;2023-10-31T10:28:25;0.68;;;0.60;;
35795;SDS011;21916;52.428;13.302;2023-10-31T10:30:51;0.88;;;0.65;;
35795;SDS011;21916;52.428;13.302;2023-10-31T10:33:19;1.08;;;0.68;;
35795;SDS011;21916;52.428;13.302;2023-10-31T10:35:46;1.13;;;0.70;;
35795;SDS011;21916;52.428;13.302;2023-10-31T10:38:16;1.48;;;0.77;;
35795;SDS011;21916;52.428;13.302;2023-10-31T10:40:43;2.25;;;0.90;;
35795;SDS011;21916;52.428;13.302;2023-10-31T10:43:13;3.72;;;1.17;;
35795;SDS011;21916;52.428;13.302;2023-10-31T10:45:46;0.98;;;0.77;;
35795;SDS011;21916;52.428;13.302;2023-10-31T10:48:21;1.70;;;1.10;;
35795;SDS011;21916;52.428;13.302;2023-10-31T10:50:50;1.10;;;1.00;;
35795;SDS011;21916;52.428;13.302;2023-10-31T10:53:23;2.50;;;1.05;;
35795;SDS011;21916;52.428;13.302;2023-10-31T10:55:51;2.33;;;1.08;;
35795;SDS011;21916;52.428;13.302;2023-10-31T10:58:27;2.42;;;1.10;;
35795;SDS011;21916;52.428;13.302;2023-10-31T11:01:24;1.08;;;0.77;;
35795;SDS011;21916;52.428;13.302;2023-10-31T11:03:50;1.80;;;1.02;;
35795;SDS011;21916;52.428;13.302;2023-10-31T11:06:17;2.05;;;0.90;;
35795;SDS011;21916;52.428;13.302;2023-10-31T11:08:44;0.90;;;0.80;;
35795;SDS011;21916;52.428;13.302;2023-10-31T11:11:11;1.50;;;1.00;;
35795;SDS011;21916;52.428;13.302;2023-10-31T11:13:37;1.23;;;0.90;;
35795;SDS011;21916;52.428;13.302;2023-10-31T11:16:05;2.58;;;0.80;;
35795;SDS011;21916;52.428;13.302;2023-10-31T11:18:36;1.33;;;0.70;;
35795;SDS011;21916;52.428;13.302;2023-10-31T11:21:02;3.67;;;1.58;;
35795;SDS011;21916;52.428;13.302;2023-10-31T11:23:30;1.20;;;0.82;;
35795;SDS011;21916;52.428;13.302;2023-10-31T11:25:56;0.88;;;0.70;;
35795;SDS011;21916;52.428;13.302;2023-10-31T11:28:21;0.95;;;0.65;;
35795;SDS011;21916;52.428;13.302;2023-10-31T11:30:48;0.70;;;0.60;;
35795;SDS011;21916;52.428;13.302;2023-10-31T11:33:15;1.25;;;0.77;;
35795;SDS011;21916;52.428;13.302;2023-10-31T11:35:44;0.73;;;0.50;;
35795;SDS011;21916;52.428;13.302;2023-10-31T11:38:15;0.68;;;0.63;;
35795;SDS011;21916;52.428;13.302;2023-10-31T11:43:09;1.05;;;0.70;;
35795;SDS011;21916;52.428;13.302;2023-10-31T11:45:43;0.75;;;0.32;;
35795;SDS011;21916;52.428;13.302;2023-10-31T11:48:13;1.00;;;0.63;;
35795;SDS011;21916;52.428;13.302;2023-10-31T11:50:39;0.90;;;0.65;;
35795;SDS011;21916;52.428;13.302;2023-10-31T11:53:06;0.65;;;0.50;;
35795;SDS011;21916;52.428;13.302;2023-10-31T11:55:43;0.60;;;0.50;;
35795;SDS011;21916;52.428;13.302;2023-10-31T11:58:15;0.40;;;0.40;;
35795;SDS011;21916;52.428;13.302;2023-10-31T12:03:16;1.13;;;0.70;;
35795;SDS011;21916;52.428;13.302;2023-10-31T12:08:28;0.55;;;0.47;;
35795;SDS011;21916;52.428;13.302;2023-10-31T12:11:07;1.02;;;0.70;;
35795;SDS011;21916;52.428;13.302;2023-10-31T12:13:34;1.63;;;0.80;;
35795;SDS011;21916;52.428;13.302;2023-10-31T12:16:01;2.38;;;0.60;;
35795;SDS011;21916;52.428;13.302;2023-10-31T12:18:27;2.97;;;0.70;;
35795;SDS011;21916;52.428;13.302;2023-10-31T12:20:53;0.50;;;0.38;;
35795;SDS011;21916;52.428;13.302;2023-10-31T12:23:20;1.27;;;0.70;;
35795;SDS011;21916;52.428;13.302;2023-10-31T12:25:46;0.80;;;0.70;;
35795;SDS011;21916;52.428;13.302;2023-10-31T12:28:22;0.60;;;0.40;;
35795;SDS011;21916;52.428;13.302;2023-10-31T12:30:50;0.40;;;0.40;;
35795;SDS011;21916;52.428;13.302;2023-10-31T12:33:20;0.88;;;0.38;;
35795;SDS011;21916;52.428;13.302;2023-10-31T12:35:47;0.63;;;0.30;;
35795;SDS011;21916;52.428;13.302;2023-10-31T12:38:14;0.47;;;0.30;;
35795;SDS011;21916;52.428;13.302;2023-10-31T12:40:41;0.90;;;0.30;;
35795;SDS011;21916;52.428;13.302;2023-10-31T12:43:09;1.30;;;0.60;;
35795;SDS011;21916;52.428;13.302;2023-10-31T12:45:35;2.70;;;0.30;;
35795;SDS011;21916;52.428;13.302;2023-10-31T12:48:02;0.82;;;0.63;;
35795;SDS011;21916;52.428;13.302;2023-10-31T12:50:35;0.65;;;0.32;;
35795;SDS011;21916;52.428;13.302;2023-10-31T12:53:03;0.40;;;0.40;;
35795;SDS011;21916;52.428;13.302;2023-10-31T12:55:30;0.95;;;0.35;;
35795;SDS011;21916;52.428;13.302;2023-10-31T12:57:59;0.47;;;0.40;;
35795;SDS011;21916;52.428;13.302;2023-10-31T13:00:31;1.65;;;0.30;;
35795;SDS011;21916;52.428;13.302;2023-10-31T13:02:59;0.28;;;0.28;;
35795;SDS011;21916;52.428;13.302;2023-10-31T13:05:32;0.20;;;0.20;;
35795;SDS011;21916;52.428;13.302;2023-10-31T13:08:08;1.92;;;0.30;;
35795;SDS011;21916;52.428;13.302;2023-10-31T13:10:39;0.38;;;0.20;;
35795;SDS011;21916;52.428;13.302;2023-10-31T13:13:05;0.35;;;0.25;;
35795;SDS011;21916;52.428;13.302;2023-10-31T13:15:30;0.40;;;0.40;;
35795;SDS011;21916;52.428;13.302;2023-10-31T13:17:57;0.35;;;0.20;;
35795;SDS011;21916;52.428;13.302;2023-10-31T13:20:23;0.85;;;0.47;;
35795;SDS011;21916;52.428;13.302;2023-10-31T13:22:48;1.85;;;0.30;;
35795;SDS011;21916;52.428;13.302;2023-10-31T13:25:15;1.02;;;0.22;;
35795;SDS011;21916;52.428;13.302;2023-10-31T13:27:41;4.40;;;0.35;;
35795;SDS011;21916;52.428;13.302;2023-10-31T13:30:09;0.70;;;0.40;;
35795;SDS011;21916;52.428;13.302;2023-10-31T13:32:39;1.38;;;0.30;;
35795;SDS011;21916;52.428;13.302;2023-10-31T13:35:06;0.98;;;0.40;;
35795;SDS011;21916;52.428;13.302;2023-10-31T13:37:34;0.30;;;0.30;;
35795;SDS011;21916;52.428;13.302;2023-10-31T13:40:00;0.95;;;0.30;;
35795;SDS011;21916;52.428;13.302;2023-10-31T13:42:28;0.30;;;0.30;;
35795;SDS011;21916;52.428;13.302;2023-10-31T13:44:53;0.38;;;0.20;;
35795;SDS011;21916;52.428;13.302;2023-10-31T13:47:20;0.43;;;0.28;;
35795;SDS011;21916;52.428;13.302;2023-10-31T13:49:46;0.28;;;0.28;;
35795;SDS011;21916;52.428;13.302;2023-10-31T13:52:12;0.80;;;0.30;;
35795;SDS011;21916;52.428;13.302;2023-10-31T13:54:38;0.95;;;0.20;;
35795;SDS011;21916;52.428;13.302;2023-10-31T13:57:04;0.40;;;0.38;;
35795;SDS011;21916;52.428;13.302;2023-10-31T13:59:30;2.88;;;0.60;;
35795;SDS011;21916;52.428;13.302;2023-10-31T14:01:56;0.10;;;0.10;;
35795;SDS011;21916;52.428;13.302;2023-10-31T14:04:22;0.30;;;0.20;;
35795;SDS011;21916;52.428;13.302;2023-10-31T14:06:48;0.75;;;0.30;;
35795;SDS011;21916;52.428;13.302;2023-10-31T14:09:14;0.35;;;0.20;;
35795;SDS011;21916;52.428;13.302;2023-10-31T14:11:41;0.57;;;0.30;;
35795;SDS011;21916;52.428;13.302;2023-10-31T14:14:07;0.32;;;0.30;;
35795;SDS011;21916;52.428;13.302;2023-10-31T14:16:38;0.65;;;0.25;;
35795;SDS011;21916;52.428;13.302;2023-10-31T14:19:05;0.95;;;0.40;;
35795;SDS011;21916;52.428;13.302;2023-10-31T14:21:32;0.38;;;0.30;;
35795;SDS011;21916;52.428;13.302;2023-10-31T14:24:00;0.45;;;0.40;;
35795;SDS011;21916;52.428;13.302;2023-10-31T14:26:26;0.63;;;0.40;;
35795;SDS011;21916;52.428;13.302;2023-10-31T14:28:52;0.80;;;0.40;;
35795;SDS011;21916;52.428;13.302;2023-10-31T14:31:17;5.05;;;0.40;;
35795;SDS011;21916;52.428;13.302;2023-10-31T14:33:46;0.70;;;0.40;;
35795;SDS011;21916;52.428;13.302;2023-10-31T14:36:12;1.55;;;0.40;;
35795;SDS011;21916;52.428;13.302;2023-10-31T14:38:39;0.38;;;0.30;;